sensor_id;sensor_type;location;lat;lon;timestamp;P1;durP1;ratioP1;P2;durP2;ratioP2
21012;SDS011;10664;53.582;9.712;2022-12-07T00:00:54;30.90;;;19.20;;
21012;SDS011;10664;53.582;9.712;2022-12-07T00:03:20;31.30;;;19.30;;
21012;SDS011;10664;53.582;9.712;2022-12-07T00:05:46;31.97;;;19.07;;
21012;SDS011;10664;53.582;9.712;2022-12-07T00:08:12;31.27;;;19.40;;
21012;SDS011;10664;53.582;9.712;2022-12-07T00:10:38;29.77;;;18.30;;
21012;SDS011;10664;53.582;9.712;2022-12-07T00:13:04;26.80;;;17.53;;
21012;SDS011;10664;53.582;9.712;2022-12-07T00:15:30;28.90;;;18.07;;
21012;SDS011;10664;53.582;9.712;2022-12-07T00:17:56;26.90;;;16.97;;
21012;SDS011;10664;53.582;9.712;2022-12-07T00:20:22;26.57;;;16.90;;
21012;SDS011;10664;53.582;9.712;2022-12-07T00:22:48;27.10;;;17.50;;
21012;SDS011;10664;53.582;9.712;2022-12-07T00:25:14;27.70;;;16.37;;
21012;SDS011;10664;53.582;9.712;2022-12-07T00:27:40;24.07;;;16.10;;
21012;SDS011;10664;53.582;9.712;2022-12-07T00:30:06;25.60;;;16.87;;
21012;SDS011;10664;53.582;9.712;2022-12-07T00:32:32;27.93;;;16.63;;
21012;SDS011;10664;53.582;9.712;2022-12-07T00:34:58;24.87;;;15.97;;
21012;SDS011;10664;53.582;9.712;2022-12-07T00:37:24;28.00;;;16.33;;
21012;SDS011;10664;53.582;9.712;2022-12-07T00:39:50;25.20;;;15.50;;
21012;SDS011;10664;53.582;9.712;2022-12-07T00:42:15;25.73;;;15.57;;
21012;SDS011;10664;53.582;9.712;2022-12-07T00:44:41;24.40;;;15.53;;
21012;SDS011;10664;53.582;9.712;2022-12-07T00:47:07;22.00;;;14.90;;
21012;SDS011;10664;53.582;9.712;2022-12-07T00:49:33;24.40;;;14.47;;
21012;SDS011;10664;53.582;9.712;2022-12-07T00:51:59;22.83;;;14.93;;
21012;SDS011;10664;53.582;9.712;2022-12-07T00:54:25;21.63;;;14.53;;
21012;SDS011;10664;53.582;9.712;2022-12-07T00:56:51;22.40;;;13.90;;
21012;SDS011;10664;53.582;9.712;2022-12-07T00:59:17;22.23;;;13.13;;
21012;SDS011;10664;53.582;9.712;2022-12-07T01:01:43;20.63;;;13.60;;
21012;SDS011;10664;53.582;9.712;2022-12-07T01:04:09;19.97;;;12.93;;
21012;SDS011;10664;53.582;9.712;2022-12-07T01:06:35;19.97;;;13.30;;
21012;SDS011;10664;53.582;9.712;2022-12-07T01:09:01;21.50;;;13.60;;
21012;SDS011;10664;53.582;9.712;2022-12-07T01:11:29;20.77;;;12.80;;
21012;SDS011;10664;53.582;9.712;2022-12-07T01:13:56;20.33;;;12.70;;
21012;SDS011;10664;53.582;9.712;2022-12-07T01:16:23;20.20;;;12.63;;
21012;SDS011;10664;53.582;9.712;2022-12-07T01:18:50;22.10;;;13.27;;
21012;SDS011;10664;53.582;9.712;2022-12-07T01:21:26;20.40;;;12.43;;
21012;SDS011;10664;53.582;9.712;2022-12-07T01:23:53;19.03;;;12.50;;
21012;SDS011;10664;53.582;9.712;2022-12-07T01:26:22;21.33;;;13.03;;
21012;SDS011;10664;53.582;9.712;2022-12-07T01:28:49;19.20;;;12.93;;
21012;SDS011;10664;53.582;9.712;2022-12-07T01:31:19;21.10;;;13.23;;
21012;SDS011;10664;53.582;9.712;2022-12-07T01:33:46;17.50;;;12.07;;
21012;SDS011;10664;53.582;9.712;2022-12-07T01:36:20;22.43;;;13.20;;
21012;SDS011;10664;53.582;9.712;2022-12-07T01:38:46;19.93;;;12.73;;
21012;SDS011;10664;53.582;9.712;2022-12-07T01:41:13;17.60;;;12.50;;
21012;SDS011;10664;53.582;9.712;2022-12-07T01:46:41;19.07;;;12.67;;
21012;SDS011;10664;53.582;9.712;2022-12-07T01:49:12;16.80;;;12.23;;
21012;SDS011;10664;53.582;9.712;2022-12-07T01:51:40;16.80;;;11.50;;
21012;SDS011;10664;53.582;9.712;2022-12-07T01:54:07;21.10;;;12.47;;
21012;SDS011;10664;53.582;9.712;2022-12-07T01:56:33;19.07;;;11.53;;
21012;SDS011;10664;53.582;9.712;2022-12-07T01:59:00;17.97;;;10.87;;
21012;SDS011;10664;53.582;9.712;2022-12-07T02:01:26;16.97;;;10.80;;
21012;SDS011;10664;53.582;9.712;2022-12-07T02:03:52;16.93;;;11.40;;
21012;SDS011;10664;53.582;9.712;2022-12-07T02:06:19;16.57;;;10.53;;
21012;SDS011;10664;53.582;9.712;2022-12-07T02:08:46;17.60;;;10.30;;
21012;SDS011;10664;53.582;9.712;2022-12-07T02:11:12;16.70;;;10.30;;
21012;SDS011;10664;53.582;9.712;2022-12-07T02:13:39;16.20;;;10.43;;
21012;SDS011;10664;53.582;9.712;2022-12-07T02:26:28;15.23;;;9.30;;
21012;SDS011;10664;53.582;9.712;2022-12-07T02:29:05;14.03;;;9.20;;
21012;SDS011;10664;53.582;9.712;2022-12-07T02:31:34;16.00;;;8.80;;
21012;SDS011;10664;53.582;9.712;2022-12-07T02:34:26;12.97;;;8.53;;
21012;SDS011;10664;53.582;9.712;2022-12-07T02:36:51;14.73;;;8.03;;
21012;SDS011;10664;53.582;9.712;2022-12-07T02:39:20;11.77;;;8.07;;
21012;SDS011;10664;53.582;9.712;2022-12-07T02:41:52;11.33;;;7.43;;
21012;SDS011;10664;53.582;9.712;2022-12-07T02:44:21;10.33;;;7.47;;
21012;SDS011;10664;53.582;9.712;2022-12-07T02:46:59;11.27;;;6.93;;
21012;SDS011;10664;53.582;9.712;2022-12-07T02:49:26;11.33;;;7.03;;
21012;SDS011;10664;53.582;9.712;2022-12-07T02:51:53;9.20;;;6.00;;
21012;SDS011;10664;53.582;9.712;2022-12-07T02:54:20;7.77;;;5.80;;
21012;SDS011;10664;53.582;9.712;2022-12-07T02:56:55;6.80;;;5.07;;
21012;SDS011;10664;53.582;9.712;2022-12-07T03:04:25;4.33;;;3.40;;
21012;SDS011;10664;53.582;9.712;2022-12-07T03:07:00;6.10;;;3.37;;
21012;SDS011;10664;53.582;9.712;2022-12-07T03:12:00;3.13;;;2.60;;
21012;SDS011;10664;53.582;9.712;2022-12-07T03:14:30;3.40;;;3.10;;
21012;SDS011;10664;53.582;9.712;2022-12-07T03:17:09;3.47;;;2.57;;
21012;SDS011;10664;53.582;9.712;2022-12-07T03:19:36;3.80;;;2.70;;
21012;SDS011;10664;53.582;9.712;2022-12-07T03:22:03;2.97;;;2.67;;
21012;SDS011;10664;53.582;9.712;2022-12-07T03:24:33;4.47;;;2.77;;
21012;SDS011;10664;53.582;9.712;2022-12-07T03:27:03;3.73;;;2.20;;
21012;SDS011;10664;53.582;9.712;2022-12-07T03:29:37;3.20;;;2.50;;
21012;SDS011;10664;53.582;9.712;2022-12-07T03:32:08;2.20;;;2.00;;
21012;SDS011;10664;53.582;9.712;2022-12-07T03:34:37;2.20;;;2.00;;
21012;SDS011;10664;53.582;9.712;2022-12-07T03:37:05;3.97;;;2.00;;
21012;SDS011;10664;53.582;9.712;2022-12-07T03:39:36;2.37;;;2.17;;
21012;SDS011;10664;53.582;9.712;2022-12-07T03:42:03;3.70;;;2.13;;
21012;SDS011;10664;53.582;9.712;2022-12-07T03:44:30;2.07;;;1.70;;
21012;SDS011;10664;53.582;9.712;2022-12-07T03:47:00;2.00;;;1.90;;
21012;SDS011;10664;53.582;9.712;2022-12-07T03:49:28;3.03;;;1.90;;
21012;SDS011;10664;53.582;9.712;2022-12-07T03:54:32;3.07;;;1.70;;
21012;SDS011;10664;53.582;9.712;2022-12-07T03:57:00;4.13;;;1.80;;
21012;SDS011;10664;53.582;9.712;2022-12-07T03:59:27;3.57;;;1.87;;
21012;SDS011;10664;53.582;9.712;2022-12-07T04:01:54;2.57;;;2.10;;
21012;SDS011;10664;53.582;9.712;2022-12-07T04:04:21;2.63;;;1.90;;
21012;SDS011;10664;53.582;9.712;2022-12-07T04:06:47;2.60;;;1.80;;
21012;SDS011;10664;53.582;9.712;2022-12-07T04:09:13;3.77;;;2.00;;
21012;SDS011;10664;53.582;9.712;2022-12-07T04:11:39;3.83;;;2.20;;
21012;SDS011;10664;53.582;9.712;2022-12-07T04:14:05;2.13;;;1.83;;
21012;SDS011;10664;53.582;9.712;2022-12-07T04:16:44;3.17;;;2.00;;
21012;SDS011;10664;53.582;9.712;2022-12-07T04:19:10;3.03;;;2.20;;
21012;SDS011;10664;53.582;9.712;2022-12-07T04:21:36;3.27;;;2.10;;
21012;SDS011;10664;53.582;9.712;2022-12-07T04:24:02;2.50;;;2.20;;
21012;SDS011;10664;53.582;9.712;2022-12-07T04:26:28;2.60;;;2.00;;
21012;SDS011;10664;53.582;9.712;2022-12-07T04:28:54;3.07;;;2.40;;
21012;SDS011;10664;53.582;9.712;2022-12-07T04:31:20;2.57;;;2.27;;
21012;SDS011;10664;53.582;9.712;2022-12-07T04:33:46;2.57;;;2.37;;
21012;SDS011;10664;53.582;9.712;2022-12-07T04:36:12;3.07;;;2.30;;
21012;SDS011;10664;53.582;9.712;2022-12-07T04:38:38;2.90;;;1.90;;
21012;SDS011;10664;53.582;9.712;2022-12-07T04:41:07;2.40;;;2.20;;
21012;SDS011;10664;53.582;9.712;2022-12-07T04:43:33;2.93;;;2.40;;
21012;SDS011;10664;53.582;9.712;2022-12-07T04:45:59;2.83;;;2.20;;
21012;SDS011;10664;53.582;9.712;2022-12-07T04:48:25;2.57;;;2.20;;
21012;SDS011;10664;53.582;9.712;2022-12-07T04:50:52;2.43;;;2.10;;
21012;SDS011;10664;53.582;9.712;2022-12-07T04:53:18;2.70;;;2.50;;
21012;SDS011;10664;53.582;9.712;2022-12-07T04:55:44;3.60;;;2.63;;
21012;SDS011;10664;53.582;9.712;2022-12-07T04:58:10;3.23;;;2.60;;
21012;SDS011;10664;53.582;9.712;2022-12-07T05:00:36;2.60;;;2.40;;
21012;SDS011;10664;53.582;9.712;2022-12-07T05:03:02;3.03;;;2.73;;
21012;SDS011;10664;53.582;9.712;2022-12-07T05:05:28;2.70;;;2.50;;
21012;SDS011;10664;53.582;9.712;2022-12-07T05:07:54;2.60;;;2.40;;
21012;SDS011;10664;53.582;9.712;2022-12-07T05:10:20;3.07;;;2.60;;
21012;SDS011;10664;53.582;9.712;2022-12-07T05:12:46;2.93;;;2.63;;
21012;SDS011;10664;53.582;9.712;2022-12-07T05:15:13;3.00;;;2.80;;
21012;SDS011;10664;53.582;9.712;2022-12-07T05:17:39;2.70;;;2.50;;
21012;SDS011;10664;53.582;9.712;2022-12-07T05:20:05;2.80;;;2.60;;
21012;SDS011;10664;53.582;9.712;2022-12-07T05:22:31;2.97;;;2.30;;
21012;SDS011;10664;53.582;9.712;2022-12-07T05:24:57;2.93;;;2.50;;
21012;SDS011;10664;53.582;9.712;2022-12-07T05:27:23;2.70;;;2.50;;
21012;SDS011;10664;53.582;9.712;2022-12-07T05:29:50;2.73;;;2.53;;
21012;SDS011;10664;53.582;9.712;2022-12-07T05:32:16;3.17;;;2.80;;
21012;SDS011;10664;53.582;9.712;2022-12-07T05:34:42;2.80;;;2.60;;
21012;SDS011;10664;53.582;9.712;2022-12-07T05:37:08;2.77;;;2.43;;
21012;SDS011;10664;53.582;9.712;2022-12-07T05:39:34;2.47;;;2.20;;
21012;SDS011;10664;53.582;9.712;2022-12-07T05:42:00;2.63;;;2.43;;
21012;SDS011;10664;53.582;9.712;2022-12-07T05:44:39;3.20;;;2.37;;
21012;SDS011;10664;53.582;9.712;2022-12-07T05:47:05;2.43;;;2.23;;
21012;SDS011;10664;53.582;9.712;2022-12-07T05:49:31;3.27;;;2.30;;
21012;SDS011;10664;53.582;9.712;2022-12-07T05:51:57;2.67;;;2.40;;
21012;SDS011;10664;53.582;9.712;2022-12-07T05:54:23;2.70;;;2.50;;
21012;SDS011;10664;53.582;9.712;2022-12-07T05:56:49;2.80;;;2.50;;
21012;SDS011;10664;53.582;9.712;2022-12-07T05:59:15;2.83;;;2.60;;
21012;SDS011;10664;53.582;9.712;2022-12-07T06:01:53;2.87;;;2.67;;
21012;SDS011;10664;53.582;9.712;2022-12-07T06:04:20;3.00;;;2.13;;
21012;SDS011;10664;53.582;9.712;2022-12-07T06:06:46;2.50;;;2.30;;
21012;SDS011;10664;53.582;9.712;2022-12-07T06:09:12;2.77;;;2.20;;
21012;SDS011;10664;53.582;9.712;2022-12-07T06:11:38;2.40;;;2.20;;
21012;SDS011;10664;53.582;9.712;2022-12-07T06:14:23;3.13;;;2.20;;
21012;SDS011;10664;53.582;9.712;2022-12-07T06:16:49;2.53;;;2.10;;
21012;SDS011;10664;53.582;9.712;2022-12-07T06:19:15;2.73;;;2.30;;
21012;SDS011;10664;53.582;9.712;2022-12-07T06:21:41;3.60;;;2.20;;
21012;SDS011;10664;53.582;9.712;2022-12-07T06:24:08;2.77;;;2.20;;
21012;SDS011;10664;53.582;9.712;2022-12-07T06:26:34;2.23;;;2.03;;
21012;SDS011;10664;53.582;9.712;2022-12-07T06:29:00;2.27;;;2.00;;
21012;SDS011;10664;53.582;9.712;2022-12-07T06:31:26;3.07;;;2.10;;
21012;SDS011;10664;53.582;9.712;2022-12-07T06:33:56;1.90;;;1.80;;
21012;SDS011;10664;53.582;9.712;2022-12-07T06:36:22;2.07;;;1.60;;
21012;SDS011;10664;53.582;9.712;2022-12-07T06:38:48;2.30;;;1.50;;
21012;SDS011;10664;53.582;9.712;2022-12-07T06:41:14;3.13;;;2.10;;
21012;SDS011;10664;53.582;9.712;2022-12-07T06:43:40;1.87;;;1.57;;
21012;SDS011;10664;53.582;9.712;2022-12-07T06:46:07;2.20;;;1.50;;
21012;SDS011;10664;53.582;9.712;2022-12-07T06:48:33;1.70;;;1.60;;
21012;SDS011;10664;53.582;9.712;2022-12-07T06:50:59;1.80;;;1.70;;
21012;SDS011;10664;53.582;9.712;2022-12-07T06:53:25;1.50;;;1.40;;
21012;SDS011;10664;53.582;9.712;2022-12-07T06:55:51;2.10;;;1.50;;
21012;SDS011;10664;53.582;9.712;2022-12-07T06:58:17;2.23;;;1.57;;
21012;SDS011;10664;53.582;9.712;2022-12-07T07:00:43;2.17;;;1.70;;
21012;SDS011;10664;53.582;9.712;2022-12-07T07:03:10;1.60;;;1.50;;
21012;SDS011;10664;53.582;9.712;2022-12-07T07:05:36;1.57;;;1.47;;
21012;SDS011;10664;53.582;9.712;2022-12-07T07:08:02;1.40;;;1.30;;
21012;SDS011;10664;53.582;9.712;2022-12-07T07:10:28;1.57;;;1.47;;
21012;SDS011;10664;53.582;9.712;2022-12-07T07:12:54;2.00;;;1.57;;
21012;SDS011;10664;53.582;9.712;2022-12-07T07:15:20;1.87;;;1.63;;
21012;SDS011;10664;53.582;9.712;2022-12-07T07:17:46;4.47;;;2.70;;
21012;SDS011;10664;53.582;9.712;2022-12-07T07:20:12;1.20;;;1.10;;
21012;SDS011;10664;53.582;9.712;2022-12-07T07:22:38;1.60;;;1.50;;
21012;SDS011;10664;53.582;9.712;2022-12-07T07:25:05;2.23;;;1.37;;
21012;SDS011;10664;53.582;9.712;2022-12-07T07:27:31;1.40;;;1.30;;
21012;SDS011;10664;53.582;9.712;2022-12-07T07:29:57;2.20;;;1.40;;
21012;SDS011;10664;53.582;9.712;2022-12-07T07:32:23;1.80;;;1.60;;
21012;SDS011;10664;53.582;9.712;2022-12-07T07:34:48;1.60;;;1.50;;
21012;SDS011;10664;53.582;9.712;2022-12-07T07:37:14;1.27;;;1.13;;
21012;SDS011;10664;53.582;9.712;2022-12-07T07:39:40;2.37;;;1.60;;
21012;SDS011;10664;53.582;9.712;2022-12-07T07:42:06;2.30;;;1.70;;
21012;SDS011;10664;53.582;9.712;2022-12-07T07:44:33;3.27;;;2.53;;
21012;SDS011;10664;53.582;9.712;2022-12-07T07:46:59;2.93;;;1.30;;
21012;SDS011;10664;53.582;9.712;2022-12-07T07:49:25;1.50;;;1.40;;
21012;SDS011;10664;53.582;9.712;2022-12-07T07:51:51;1.60;;;1.50;;
21012;SDS011;10664;53.582;9.712;2022-12-07T07:54:17;1.50;;;1.40;;
21012;SDS011;10664;53.582;9.712;2022-12-07T07:56:43;1.50;;;1.40;;
21012;SDS011;10664;53.582;9.712;2022-12-07T07:59:09;1.50;;;1.40;;
21012;SDS011;10664;53.582;9.712;2022-12-07T08:01:35;2.13;;;1.40;;
21012;SDS011;10664;53.582;9.712;2022-12-07T08:04:01;1.67;;;1.33;;
21012;SDS011;10664;53.582;9.712;2022-12-07T08:06:27;2.23;;;1.67;;
21012;SDS011;10664;53.582;9.712;2022-12-07T08:08:53;1.40;;;1.30;;
21012;SDS011;10664;53.582;9.712;2022-12-07T08:11:19;1.60;;;1.50;;
21012;SDS011;10664;53.582;9.712;2022-12-07T08:13:45;1.50;;;1.40;;
21012;SDS011;10664;53.582;9.712;2022-12-07T08:16:12;1.60;;;1.30;;
21012;SDS011;10664;53.582;9.712;2022-12-07T08:18:40;1.67;;;1.50;;
21012;SDS011;10664;53.582;9.712;2022-12-07T08:21:06;1.77;;;1.60;;
21012;SDS011;10664;53.582;9.712;2022-12-07T08:23:33;2.20;;;1.50;;
21012;SDS011;10664;53.582;9.712;2022-12-07T08:26:05;1.73;;;1.53;;
21012;SDS011;10664;53.582;9.712;2022-12-07T08:28:32;2.47;;;1.23;;
21012;SDS011;10664;53.582;9.712;2022-12-07T08:31:19;1.60;;;1.20;;
21012;SDS011;10664;53.582;9.712;2022-12-07T08:33:45;2.10;;;1.50;;
21012;SDS011;10664;53.582;9.712;2022-12-07T08:36:12;2.80;;;1.70;;
21012;SDS011;10664;53.582;9.712;2022-12-07T08:38:38;2.23;;;1.50;;
21012;SDS011;10664;53.582;9.712;2022-12-07T08:41:05;2.57;;;1.77;;
21012;SDS011;10664;53.582;9.712;2022-12-07T08:43:31;1.50;;;1.30;;
21012;SDS011;10664;53.582;9.712;2022-12-07T08:48:30;1.70;;;1.60;;
21012;SDS011;10664;53.582;9.712;2022-12-07T08:50:56;1.97;;;1.60;;
21012;SDS011;10664;53.582;9.712;2022-12-07T08:53:23;2.30;;;1.67;;
21012;SDS011;10664;53.582;9.712;2022-12-07T08:55:49;2.43;;;2.07;;
21012;SDS011;10664;53.582;9.712;2022-12-07T08:58:15;2.10;;;1.77;;
21012;SDS011;10664;53.582;9.712;2022-12-07T09:00:41;2.43;;;1.53;;
21012;SDS011;10664;53.582;9.712;2022-12-07T09:03:07;1.83;;;1.43;;
21012;SDS011;10664;53.582;9.712;2022-12-07T09:05:33;3.20;;;1.80;;
21012;SDS011;10664;53.582;9.712;2022-12-07T09:08:00;3.63;;;1.60;;
21012;SDS011;10664;53.582;9.712;2022-12-07T09:10:26;3.20;;;2.17;;
21012;SDS011;10664;53.582;9.712;2022-12-07T09:12:52;1.80;;;1.70;;
21012;SDS011;10664;53.582;9.712;2022-12-07T09:15:18;2.73;;;2.03;;
21012;SDS011;10664;53.582;9.712;2022-12-07T09:17:44;2.53;;;1.90;;
21012;SDS011;10664;53.582;9.712;2022-12-07T09:20:10;3.97;;;2.00;;
21012;SDS011;10664;53.582;9.712;2022-12-07T09:22:37;3.27;;;1.67;;
21012;SDS011;10664;53.582;9.712;2022-12-07T09:25:03;1.60;;;1.50;;
21012;SDS011;10664;53.582;9.712;2022-12-07T09:27:29;2.20;;;1.50;;
21012;SDS011;10664;53.582;9.712;2022-12-07T09:29:55;1.40;;;1.30;;
21012;SDS011;10664;53.582;9.712;2022-12-07T09:32:21;1.83;;;1.60;;
21012;SDS011;10664;53.582;9.712;2022-12-07T09:34:48;1.50;;;1.30;;
21012;SDS011;10664;53.582;9.712;2022-12-07T09:37:14;2.07;;;1.47;;
21012;SDS011;10664;53.582;9.712;2022-12-07T09:39:40;1.50;;;1.40;;
21012;SDS011;10664;53.582;9.712;2022-12-07T09:42:07;2.10;;;1.50;;
21012;SDS011;10664;53.582;9.712;2022-12-07T09:44:35;2.40;;;1.30;;
21012;SDS011;10664;53.582;9.712;2022-12-07T09:47:01;2.03;;;1.37;;
21012;SDS011;10664;53.582;9.712;2022-12-07T09:49:28;1.97;;;1.50;;
21012;SDS011;10664;53.582;9.712;2022-12-07T09:54:35;1.90;;;1.40;;
21012;SDS011;10664;53.582;9.712;2022-12-07T09:57:02;1.67;;;1.33;;
21012;SDS011;10664;53.582;9.712;2022-12-07T09:59:28;1.60;;;1.27;;
21012;SDS011;10664;53.582;9.712;2022-12-07T10:01:54;1.50;;;1.27;;
21012;SDS011;10664;53.582;9.712;2022-12-07T10:04:22;1.30;;;1.20;;
21012;SDS011;10664;53.582;9.712;2022-12-07T10:06:50;2.13;;;1.40;;
21012;SDS011;10664;53.582;9.712;2022-12-07T10:09:16;2.20;;;1.50;;
21012;SDS011;10664;53.582;9.712;2022-12-07T10:12:03;2.30;;;1.30;;
21012;SDS011;10664;53.582;9.712;2022-12-07T10:14:30;1.90;;;1.27;;
21012;SDS011;10664;53.582;9.712;2022-12-07T10:16:57;3.60;;;2.60;;
21012;SDS011;10664;53.582;9.712;2022-12-07T10:19:24;1.10;;;1.10;;
21012;SDS011;10664;53.582;9.712;2022-12-07T10:21:59;2.00;;;1.20;;
21012;SDS011;10664;53.582;9.712;2022-12-07T10:24:25;2.37;;;1.30;;
21012;SDS011;10664;53.582;9.712;2022-12-07T10:26:51;2.83;;;1.50;;
21012;SDS011;10664;53.582;9.712;2022-12-07T10:29:30;1.83;;;1.30;;
21012;SDS011;10664;53.582;9.712;2022-12-07T10:32:24;2.23;;;1.17;;
21012;SDS011;10664;53.582;9.712;2022-12-07T10:34:55;2.80;;;1.37;;
21012;SDS011;10664;53.582;9.712;2022-12-07T10:37:41;1.40;;;1.30;;
21012;SDS011;10664;53.582;9.712;2022-12-07T10:40:23;1.30;;;1.20;;
21012;SDS011;10664;53.582;9.712;2022-12-07T10:43:00;2.57;;;1.50;;
21012;SDS011;10664;53.582;9.712;2022-12-07T10:45:26;1.20;;;1.10;;
21012;SDS011;10664;53.582;9.712;2022-12-07T10:53:09;2.13;;;1.40;;
21012;SDS011;10664;53.582;9.712;2022-12-07T10:55:53;1.63;;;1.30;;
21012;SDS011;10664;53.582;9.712;2022-12-07T11:03:29;2.37;;;1.30;;
21012;SDS011;10664;53.582;9.712;2022-12-07T11:06:08;2.03;;;1.40;;
21012;SDS011;10664;53.582;9.712;2022-12-07T11:08:53;4.00;;;2.87;;
21012;SDS011;10664;53.582;9.712;2022-12-07T11:11:38;7.53;;;4.67;;
21012;SDS011;10664;53.582;9.712;2022-12-07T11:14:18;8.53;;;4.10;;
21012;SDS011;10664;53.582;9.712;2022-12-07T11:17:29;7.37;;;4.20;;
21012;SDS011;10664;53.582;9.712;2022-12-07T11:22:22;4.10;;;2.83;;
21012;SDS011;10664;53.582;9.712;2022-12-07T11:24:50;4.33;;;2.60;;
21012;SDS011;10664;53.582;9.712;2022-12-07T11:27:22;2.20;;;2.00;;
21012;SDS011;10664;53.582;9.712;2022-12-07T11:29:51;3.13;;;1.90;;
21012;SDS011;10664;53.582;9.712;2022-12-07T11:37:41;2.30;;;1.60;;
21012;SDS011;10664;53.582;9.712;2022-12-07T11:40:20;3.00;;;1.50;;
21012;SDS011;10664;53.582;9.712;2022-12-07T11:45:32;2.03;;;1.20;;
21012;SDS011;10664;53.582;9.712;2022-12-07T11:48:00;2.03;;;1.30;;
21012;SDS011;10664;53.582;9.712;2022-12-07T11:50:36;1.40;;;1.30;;
21012;SDS011;10664;53.582;9.712;2022-12-07T11:55:50;2.10;;;1.40;;
21012;SDS011;10664;53.582;9.712;2022-12-07T11:58:33;2.17;;;1.30;;
21012;SDS011;10664;53.582;9.712;2022-12-07T12:01:06;3.37;;;1.60;;
21012;SDS011;10664;53.582;9.712;2022-12-07T12:03:35;1.83;;;1.43;;
21012;SDS011;10664;53.582;9.712;2022-12-07T12:06:02;3.80;;;1.60;;
21012;SDS011;10664;53.582;9.712;2022-12-07T12:14:05;1.63;;;1.30;;
21012;SDS011;10664;53.582;9.712;2022-12-07T12:16:48;1.70;;;1.40;;
21012;SDS011;10664;53.582;9.712;2022-12-07T12:21:47;3.20;;;1.37;;
21012;SDS011;10664;53.582;9.712;2022-12-07T12:24:16;1.57;;;1.47;;
21012;SDS011;10664;53.582;9.712;2022-12-07T12:26:50;2.37;;;1.50;;
21012;SDS011;10664;53.582;9.712;2022-12-07T12:29:26;2.83;;;1.50;;
21012;SDS011;10664;53.582;9.712;2022-12-07T12:34:33;2.27;;;1.30;;
21012;SDS011;10664;53.582;9.712;2022-12-07T12:37:10;4.23;;;1.40;;
21012;SDS011;10664;53.582;9.712;2022-12-07T12:39:39;1.67;;;1.40;;
21012;SDS011;10664;53.582;9.712;2022-12-07T12:42:05;3.83;;;1.60;;
21012;SDS011;10664;53.582;9.712;2022-12-07T12:45:02;3.43;;;1.47;;
21012;SDS011;10664;53.582;9.712;2022-12-07T12:47:42;1.73;;;1.10;;
21012;SDS011;10664;53.582;9.712;2022-12-07T12:50:15;2.43;;;1.40;;
21012;SDS011;10664;53.582;9.712;2022-12-07T12:57:34;3.50;;;1.30;;
21012;SDS011;10664;53.582;9.712;2022-12-07T13:00:01;2.47;;;1.10;;
21012;SDS011;10664;53.582;9.712;2022-12-07T13:04:56;3.80;;;1.30;;
21012;SDS011;10664;53.582;9.712;2022-12-07T13:10:20;3.07;;;1.40;;
21012;SDS011;10664;53.582;9.712;2022-12-07T13:17:58;2.43;;;1.40;;
21012;SDS011;10664;53.582;9.712;2022-12-07T13:20:45;2.60;;;1.60;;
21012;SDS011;10664;53.582;9.712;2022-12-07T13:23:12;2.10;;;1.30;;
21012;SDS011;10664;53.582;9.712;2022-12-07T13:25:45;3.13;;;1.60;;
21012;SDS011;10664;53.582;9.712;2022-12-07T13:28:15;2.40;;;1.70;;
21012;SDS011;10664;53.582;9.712;2022-12-07T13:33:28;2.17;;;1.40;;
21012;SDS011;10664;53.582;9.712;2022-12-07T13:35:55;2.10;;;1.40;;
21012;SDS011;10664;53.582;9.712;2022-12-07T13:38:32;1.93;;;1.30;;
21012;SDS011;10664;53.582;9.712;2022-12-07T13:41:11;5.13;;;1.50;;
21012;SDS011;10664;53.582;9.712;2022-12-07T13:43:48;3.27;;;1.90;;
21012;SDS011;10664;53.582;9.712;2022-12-07T13:46:15;4.10;;;1.60;;
21012;SDS011;10664;53.582;9.712;2022-12-07T13:48:45;3.13;;;1.90;;
21012;SDS011;10664;53.582;9.712;2022-12-07T13:51:22;3.60;;;1.30;;
21012;SDS011;10664;53.582;9.712;2022-12-07T13:53:53;3.17;;;1.60;;
21012;SDS011;10664;53.582;9.712;2022-12-07T13:56:24;3.93;;;1.60;;
21012;SDS011;10664;53.582;9.712;2022-12-07T13:58:51;2.00;;;1.23;;
21012;SDS011;10664;53.582;9.712;2022-12-07T14:01:17;3.03;;;1.43;;
21012;SDS011;10664;53.582;9.712;2022-12-07T14:03:43;2.40;;;1.20;;
21012;SDS011;10664;53.582;9.712;2022-12-07T14:06:14;2.63;;;1.60;;
21012;SDS011;10664;53.582;9.712;2022-12-07T14:08:41;3.20;;;1.90;;
21012;SDS011;10664;53.582;9.712;2022-12-07T14:11:08;2.57;;;1.50;;
21012;SDS011;10664;53.582;9.712;2022-12-07T14:13:38;2.30;;;1.73;;
21012;SDS011;10664;53.582;9.712;2022-12-07T14:16:17;2.00;;;1.50;;
21012;SDS011;10664;53.582;9.712;2022-12-07T14:18:43;2.60;;;1.53;;
21012;SDS011;10664;53.582;9.712;2022-12-07T14:23:36;2.43;;;1.30;;
21012;SDS011;10664;53.582;9.712;2022-12-07T14:26:05;3.77;;;2.03;;
21012;SDS011;10664;53.582;9.712;2022-12-07T14:28:33;1.53;;;1.23;;
21012;SDS011;10664;53.582;9.712;2022-12-07T14:30:59;2.27;;;1.10;;
21012;SDS011;10664;53.582;9.712;2022-12-07T14:33:25;1.60;;;1.10;;
21012;SDS011;10664;53.582;9.712;2022-12-07T14:35:52;2.23;;;1.30;;
21012;SDS011;10664;53.582;9.712;2022-12-07T14:38:20;2.33;;;1.23;;
21012;SDS011;10664;53.582;9.712;2022-12-07T14:40:47;1.50;;;1.20;;
21012;SDS011;10664;53.582;9.712;2022-12-07T14:43:14;1.30;;;1.20;;
21012;SDS011;10664;53.582;9.712;2022-12-07T14:45:40;1.63;;;1.17;;
21012;SDS011;10664;53.582;9.712;2022-12-07T14:48:13;1.20;;;1.10;;
21012;SDS011;10664;53.582;9.712;2022-12-07T14:50:47;1.87;;;1.33;;
21012;SDS011;10664;53.582;9.712;2022-12-07T14:53:16;1.30;;;1.20;;
21012;SDS011;10664;53.582;9.712;2022-12-07T14:55:42;2.37;;;1.60;;
21012;SDS011;10664;53.582;9.712;2022-12-07T14:58:12;1.20;;;1.10;;
21012;SDS011;10664;53.582;9.712;2022-12-07T15:00:39;2.57;;;1.40;;
21012;SDS011;10664;53.582;9.712;2022-12-07T15:03:05;2.77;;;1.60;;
21012;SDS011;10664;53.582;9.712;2022-12-07T15:05:31;1.83;;;1.30;;
21012;SDS011;10664;53.582;9.712;2022-12-07T15:07:57;1.60;;;1.20;;
21012;SDS011;10664;53.582;9.712;2022-12-07T15:10:24;2.37;;;2.17;;
21012;SDS011;10664;53.582;9.712;2022-12-07T15:12:54;1.80;;;1.50;;
21012;SDS011;10664;53.582;9.712;2022-12-07T15:15:40;2.37;;;1.30;;
21012;SDS011;10664;53.582;9.712;2022-12-07T15:18:06;1.60;;;1.50;;
21012;SDS011;10664;53.582;9.712;2022-12-07T15:20:32;1.67;;;1.30;;
21012;SDS011;10664;53.582;9.712;2022-12-07T15:22:59;3.00;;;1.40;;
21012;SDS011;10664;53.582;9.712;2022-12-07T15:25:24;1.60;;;1.30;;
21012;SDS011;10664;53.582;9.712;2022-12-07T15:27:50;2.07;;;1.57;;
21012;SDS011;10664;53.582;9.712;2022-12-07T15:30:16;3.87;;;1.80;;
21012;SDS011;10664;53.582;9.712;2022-12-07T15:32:42;4.13;;;1.80;;
21012;SDS011;10664;53.582;9.712;2022-12-07T15:35:08;1.50;;;1.30;;
21012;SDS011;10664;53.582;9.712;2022-12-07T15:37:34;2.67;;;1.60;;
21012;SDS011;10664;53.582;9.712;2022-12-07T15:40:00;2.07;;;1.67;;
21012;SDS011;10664;53.582;9.712;2022-12-07T15:42:26;1.73;;;1.60;;
21012;SDS011;10664;53.582;9.712;2022-12-07T15:44:52;2.97;;;2.40;;
21012;SDS011;10664;53.582;9.712;2022-12-07T15:47:31;4.40;;;2.80;;
21012;SDS011;10664;53.582;9.712;2022-12-07T15:49:57;3.97;;;3.53;;
21012;SDS011;10664;53.582;9.712;2022-12-07T15:52:23;5.93;;;3.87;;
21012;SDS011;10664;53.582;9.712;2022-12-07T15:54:49;4.70;;;3.40;;
21012;SDS011;10664;53.582;9.712;2022-12-07T15:57:15;3.83;;;3.50;;
21012;SDS011;10664;53.582;9.712;2022-12-07T15:59:41;4.77;;;3.20;;
21012;SDS011;10664;53.582;9.712;2022-12-07T16:02:08;3.53;;;3.00;;
21012;SDS011;10664;53.582;9.712;2022-12-07T16:04:35;3.53;;;2.90;;
21012;SDS011;10664;53.582;9.712;2022-12-07T16:07:01;4.57;;;2.80;;
21012;SDS011;10664;53.582;9.712;2022-12-07T16:09:27;3.53;;;2.60;;
21012;SDS011;10664;53.582;9.712;2022-12-07T16:11:54;4.17;;;2.90;;
21012;SDS011;10664;53.582;9.712;2022-12-07T16:14:20;3.37;;;2.60;;